createdAt,value
2019-01-19T00:02:30.426Z,14.77
2019-01-19T00:05:43.546Z,14.97
2019-01-19T00:08:32.101Z,13.43
2019-01-19T00:11:49.199Z,14.87
2019-01-19T00:14:47.501Z,14.20
2019-01-19T00:18:15.304Z,13.67
2019-01-19T00:21:09.709Z,15.33
2019-01-19T00:24:19.556Z,14.03
2019-01-19T00:27:30.434Z,14.80
2019-01-19T00:30:47.978Z,13.80
2019-01-19T00:33:34.434Z,12.70
2019-01-19T00:36:13.984Z,12.83
2019-01-19T00:39:21.607Z,12.67
2019-01-19T00:42:05.978Z,13.47
2019-01-19T00:44:53.924Z,12.80
2019-01-19T00:47:42.608Z,13.23
2019-01-19T00:50:41.198Z,13.23
2019-01-19T00:53:43.214Z,12.70
2019-01-19T00:57:02.952Z,13.57
2019-01-19T00:59:41.084Z,15.33
2019-01-19T01:02:59.148Z,15.80
2019-01-19T01:05:43.157Z,15.50
2019-01-19T01:08:54.526Z,15.20
2019-01-19T01:11:42.933Z,15.40
2019-01-19T01:14:50.413Z,15.10
2019-01-19T01:18:00.466Z,14.57
2019-01-19T01:21:18.414Z,15.33
2019-01-19T01:24:22.305Z,14.97
2019-01-19T01:27:12.620Z,14.60
2019-01-19T01:30:08.044Z,14.97
2019-01-19T01:33:35.758Z,14.57
2019-01-19T01:36:41.544Z,15.43
2019-01-19T01:39:47.014Z,14.50
2019-01-19T01:43:17.303Z,15.23
2019-01-19T01:46:44.967Z,14.97
2019-01-19T01:49:42.973Z,14.77
2019-01-19T01:52:28.423Z,14.07
2019-01-19T01:55:30.966Z,14.90
2019-01-19T01:58:29.191Z,14.03
2019-01-19T02:01:44.654Z,15.03
2019-01-19T02:05:06.018Z,14.80
2019-01-19T02:07:59.531Z,14.60
2019-01-19T02:11:21.031Z,15.50
2019-01-19T02:14:20.720Z,15.83
2019-01-19T02:17:26.031Z,17.67
2019-01-19T02:20:56.531Z,17.20
2019-01-19T02:23:49.581Z,18.37
2019-01-19T02:26:50.807Z,18.27
2019-01-19T02:30:02.554Z,18.00
2019-01-19T02:33:21.200Z,16.93
2019-01-19T02:36:37.087Z,17.47
2019-01-19T02:39:55.527Z,17.00
2019-01-19T02:42:55.165Z,16.07
2019-01-19T02:45:52.150Z,16.83
2019-01-19T02:48:53.365Z,16.63
2019-01-19T02:51:49.017Z,16.47
2019-01-19T02:54:46.518Z,16.20
2019-01-19T02:58:07.251Z,16.60
2019-01-19T03:01:28.350Z,14.10
2019-01-19T03:04:11.166Z,14.63
2019-01-19T03:07:31.604Z,13.97
2019-01-19T03:10:27.577Z,14.67
2019-01-19T03:13:34.821Z,13.83
2019-01-19T03:16:48.099Z,14.23
2019-01-19T03:19:40.857Z,14.67
2019-01-19T03:22:55.286Z,15.07
2019-01-19T03:25:49.493Z,15.07
2019-01-19T03:29:03.778Z,14.67
2019-01-19T03:32:03.185Z,14.53
2019-01-19T03:35:19.100Z,14.67
2019-01-19T03:38:40.732Z,13.97
2019-01-19T03:41:40.540Z,13.77
2019-01-19T03:44:34.072Z,13.67
2019-01-19T03:48:07.546Z,13.53
2019-01-19T03:50:58.474Z,13.20
2019-01-19T03:53:40.682Z,13.20
2019-01-19T03:56:44.126Z,13.33
2019-01-19T03:59:51.379Z,13.60
2019-01-19T04:02:50.612Z,13.73
2019-01-19T04:05:46.296Z,13.97
2019-01-19T04:08:47.500Z,13.17
2019-01-19T04:11:58.626Z,12.80
2019-01-19T04:15:07.912Z,12.97
2019-01-19T04:17:57.436Z,13.33
2019-01-19T04:20:58.619Z,12.77
2019-01-19T04:23:30.316Z,13.20
2019-01-19T04:26:29.493Z,13.63
2019-01-19T04:29:02.218Z,13.60
2019-01-19T04:31:33.831Z,13.50
2019-01-19T04:34:05.900Z,13.53
2019-01-19T04:36:39.910Z,12.93
2019-01-19T04:39:12.736Z,12.87
2019-01-19T04:41:44.292Z,11.67
2019-01-19T04:44:15.877Z,12.57
2019-01-19T04:46:47.536Z,12.93
2019-01-19T04:49:20.924Z,11.93
2019-01-19T04:51:53.367Z,11.23
2019-01-19T04:54:25.453Z,12.07
2019-01-19T04:56:56.863Z,11.67
2019-01-19T04:59:28.865Z,11.70
2019-01-19T05:02:00.529Z,11.83
2019-01-19T05:04:31.932Z,11.73
2019-01-19T05:07:05.624Z,11.40
2019-01-19T05:09:37.123Z,10.77
2019-01-19T05:12:10.475Z,11.03
2019-01-19T05:14:42.335Z,11.10
2019-01-19T05:17:14.094Z,10.47
2019-01-19T05:19:45.656Z,11.03
2019-01-19T05:22:20.346Z,10.07
2019-01-19T05:24:52.448Z,10.70
2019-01-19T05:27:26.415Z,10.63
2019-01-19T05:29:58.057Z,10.63
2019-01-19T05:32:29.964Z,10.77
2019-01-19T05:35:01.794Z,10.90
2019-01-19T05:37:33.242Z,10.50
2019-01-19T05:40:05.884Z,10.97
2019-01-19T05:42:37.316Z,10.57
2019-01-19T05:45:10.860Z,10.80
2019-01-19T05:47:42.513Z,10.70
2019-01-19T05:50:22.532Z,10.27
2019-01-19T05:52:54.806Z,10.17
2019-01-19T05:55:26.141Z,10.43
2019-01-19T05:57:57.530Z,9.13
2019-01-19T06:00:32.178Z,9.83
2019-01-19T06:03:04.271Z,10.13
2019-01-19T06:05:37.139Z,10.23
2019-01-19T06:08:11.866Z,9.33
2019-01-19T06:10:44.532Z,9.17
2019-01-19T06:13:17.235Z,9.73
2019-01-19T06:15:49.942Z,9.57
2019-01-19T06:18:22.136Z,8.07
2019-01-19T06:20:57.104Z,8.83
2019-01-19T06:23:30.240Z,9.03
2019-01-19T06:26:01.710Z,9.80
2019-01-19T06:28:33.106Z,8.87
2019-01-19T06:31:04.525Z,10.07
2019-01-19T06:33:35.932Z,9.40
2019-01-19T06:36:07.923Z,9.43
2019-01-19T06:38:39.473Z,9.50
2019-01-19T06:41:12.742Z,9.77
2019-01-19T06:43:44.442Z,9.73
2019-01-19T06:46:16.300Z,9.23
2019-01-19T06:48:48.546Z,9.10
2019-01-19T06:51:21.100Z,9.50
2019-01-19T06:53:52.842Z,9.27
2019-01-19T06:56:25.276Z,9.07
2019-01-19T06:58:59.419Z,9.23
2019-01-19T07:01:30.854Z,10.43
2019-01-19T07:04:02.298Z,9.40
2019-01-19T07:06:34.296Z,8.70
2019-01-19T07:09:08.206Z,9.97
2019-01-19T07:11:43.097Z,9.83
2019-01-19T07:14:16.198Z,10.10
2019-01-19T07:16:47.887Z,9.77
2019-01-19T07:19:19.448Z,9.10
2019-01-19T07:21:50.969Z,9.10
2019-01-19T07:24:22.575Z,9.00
2019-01-19T07:26:54.205Z,9.40
2019-01-19T07:29:26.282Z,9.40
2019-01-19T07:31:58.039Z,8.37
2019-01-19T07:34:29.889Z,9.07
2019-01-19T07:37:02.063Z,9.13
2019-01-19T07:39:33.819Z,9.03
2019-01-19T07:42:05.606Z,9.67
2019-01-19T07:44:36.948Z,8.83
2019-01-19T07:47:09.199Z,9.10
2019-01-19T07:49:41.079Z,8.77
2019-01-19T07:52:12.859Z,9.57
2019-01-19T07:54:45.485Z,8.87
2019-01-19T07:57:17.149Z,9.00
2019-01-19T07:59:48.777Z,9.30
2019-01-19T08:02:20.970Z,9.10
2019-01-19T08:04:52.634Z,8.87
2019-01-19T08:07:24.353Z,9.07
2019-01-19T08:09:55.900Z,9.03
2019-01-19T08:12:29.191Z,9.60
2019-01-19T08:15:00.652Z,8.37
2019-01-19T08:17:32.091Z,8.93
2019-01-19T08:20:06.175Z,9.23
2019-01-19T08:22:37.808Z,9.07
2019-01-19T08:25:10.399Z,9.80
2019-01-19T08:27:42.666Z,9.20
2019-01-19T08:30:19.836Z,9.30
2019-01-19T08:32:51.712Z,9.73
2019-01-19T08:35:25.558Z,9.13
2019-01-19T08:37:57.228Z,9.10
2019-01-19T08:40:34.360Z,9.50
2019-01-19T08:43:31.508Z,9.00
2019-01-19T08:46:03.529Z,9.70
2019-01-19T08:48:35.976Z,9.13
2019-01-19T08:51:07.599Z,8.53
2019-01-19T08:53:39.480Z,9.57
2019-01-19T08:56:11.096Z,9.00
2019-01-19T08:58:42.639Z,9.73
2019-01-19T09:01:14.054Z,8.60
2019-01-19T09:03:45.993Z,9.67
2019-01-19T09:06:17.500Z,9.13
2019-01-19T09:08:49.825Z,9.70
2019-01-19T09:11:21.432Z,9.13
2019-01-19T09:13:52.944Z,9.73
2019-01-19T09:16:24.707Z,10.13
2019-01-19T09:18:56.204Z,9.90
2019-01-19T09:21:28.031Z,10.47
2019-01-19T09:24:05.814Z,10.80
2019-01-19T09:26:39.374Z,11.27
2019-01-19T09:29:11.250Z,10.97
2019-01-19T09:31:44.807Z,10.00
2019-01-19T09:34:17.132Z,10.07
2019-01-19T09:36:48.809Z,9.60
2019-01-19T09:39:20.300Z,9.87
2019-01-19T09:41:51.627Z,9.77
2019-01-19T09:44:23.207Z,9.83
2019-01-19T09:46:56.809Z,10.37
2019-01-19T09:49:29.473Z,10.53
2019-01-19T09:52:02.434Z,10.53
2019-01-19T09:54:35.306Z,10.67
2019-01-19T09:57:08.499Z,10.33
2019-01-19T09:59:40.190Z,10.27
2019-01-19T10:02:11.917Z,10.27
2019-01-19T10:04:43.487Z,10.07
2019-01-19T10:07:15.570Z,9.40
2019-01-19T10:09:47.245Z,9.83
2019-01-19T10:12:19.236Z,10.50
2019-01-19T10:14:51.654Z,10.20
2019-01-19T10:17:23.165Z,10.43
2019-01-19T10:19:55.043Z,10.87
2019-01-19T10:22:26.843Z,9.97
2019-01-19T10:24:58.575Z,8.90
2019-01-19T10:27:37.386Z,10.27
2019-01-19T10:30:07.861Z,9.93
2019-01-19T10:32:41.628Z,10.90
2019-01-19T10:35:13.492Z,10.10
2019-01-19T10:37:45.159Z,11.17
2019-01-19T10:40:20.529Z,10.40
2019-01-19T10:42:51.963Z,11.03
2019-01-19T10:45:24.638Z,10.50
2019-01-19T10:47:56.475Z,10.53
2019-01-19T10:50:29.671Z,10.47
2019-01-19T10:53:01.181Z,10.53
2019-01-19T10:55:32.734Z,10.87
2019-01-19T10:58:04.825Z,10.03
2019-01-19T11:00:36.708Z,10.77
2019-01-19T11:03:08.671Z,10.70
2019-01-19T11:05:41.274Z,10.20
2019-01-19T11:08:14.576Z,11.00
2019-01-19T11:10:46.318Z,10.67
2019-01-19T11:13:18.203Z,10.43
2019-01-19T11:15:51.158Z,10.43
2019-01-19T11:18:22.750Z,10.83
2019-01-19T11:20:54.626Z,11.43
2019-01-19T11:23:27.256Z,10.00
2019-01-19T11:25:58.962Z,10.93
2019-01-19T11:28:31.630Z,10.53
2019-01-19T11:31:03.270Z,11.00
2019-01-19T11:33:34.899Z,10.67
2019-01-19T11:36:07.709Z,9.93
2019-01-19T11:38:40.940Z,10.47
2019-01-19T11:41:12.702Z,9.97
2019-01-19T11:43:46.262Z,10.37
2019-01-19T11:46:19.308Z,10.57
2019-01-19T11:48:52.353Z,9.90
2019-01-19T11:51:24.279Z,10.30
2019-01-19T11:54:01.619Z,9.60
2019-01-19T11:56:33.154Z,9.30
2019-01-19T11:59:04.711Z,9.37
2019-01-19T12:01:36.226Z,9.17
2019-01-19T12:04:08.102Z,9.17
2019-01-19T12:06:39.798Z,8.90
2019-01-19T12:09:12.482Z,8.97
2019-01-19T12:11:44.044Z,8.17
2019-01-19T12:14:15.656Z,8.50
2019-01-19T12:16:50.620Z,8.07
2019-01-19T12:19:23.757Z,8.03
2019-01-19T12:21:55.624Z,8.10
2019-01-19T12:24:27.227Z,8.67
2019-01-19T12:26:58.758Z,8.60
2019-01-19T12:29:30.749Z,8.10
2019-01-19T12:32:03.812Z,8.47
2019-01-19T12:34:35.297Z,8.07
2019-01-19T12:37:09.066Z,8.03
2019-01-19T12:39:41.823Z,8.23
2019-01-19T12:42:13.220Z,7.50
2019-01-19T12:44:45.139Z,8.67
2019-01-19T12:47:18.055Z,8.40
2019-01-19T12:49:49.866Z,7.33
2019-01-19T12:52:24.839Z,7.80
2019-01-19T12:54:56.389Z,8.37
2019-01-19T12:57:27.817Z,8.07
2019-01-19T12:59:59.940Z,8.00
2019-01-19T13:02:33.036Z,7.83
2019-01-19T13:05:05.668Z,8.27
2019-01-19T13:07:37.774Z,7.90
2019-01-19T13:10:23.323Z,7.30
2019-01-19T13:13:08.328Z,7.20
2019-01-19T13:16:20.603Z,7.60
2019-01-19T13:19:18.035Z,7.30
2019-01-19T13:22:48.401Z,6.57
2019-01-19T13:25:47.956Z,6.77
2019-01-19T13:28:59.617Z,7.13
2019-01-19T13:32:10.586Z,7.00
2019-01-19T13:35:18.987Z,6.70
2019-01-19T13:38:24.380Z,6.83
2019-01-19T13:41:25.126Z,7.37
2019-01-19T13:44:26.986Z,6.67
2019-01-19T13:47:38.181Z,6.70
2019-01-19T13:50:34.860Z,6.40
2019-01-19T13:53:53.732Z,6.20
2019-01-19T13:57:01.846Z,5.80
2019-01-19T14:00:05.760Z,6.40
2019-01-19T14:03:13.690Z,6.30
2019-01-19T14:05:59.566Z,6.30
2019-01-19T14:09:17.141Z,6.27
2019-01-19T14:12:31.124Z,6.13
2019-01-19T14:15:29.335Z,6.30
2019-01-19T14:18:38.960Z,6.27
2019-01-19T14:21:40.248Z,6.50
2019-01-19T14:24:28.730Z,6.20
2019-01-19T14:27:53.248Z,6.40
2019-01-19T14:30:47.526Z,5.90
2019-01-19T14:34:18.753Z,6.33
2019-01-19T14:37:10.906Z,6.57
2019-01-19T14:40:03.661Z,6.50
2019-01-19T14:43:31.088Z,6.33
2019-01-19T14:46:30.819Z,6.20
2019-01-19T14:49:48.955Z,6.50
2019-01-19T14:52:36.980Z,5.90
2019-01-19T14:55:48.513Z,7.67
2019-01-19T14:59:00.764Z,6.43
2019-01-19T15:02:10.888Z,6.27
2019-01-19T15:04:52.983Z,7.13
2019-01-19T15:07:55.230Z,6.67
2019-01-19T15:11:04.665Z,6.77
2019-01-19T15:13:56.103Z,6.47
2019-01-19T15:17:09.140Z,7.10
2019-01-19T15:20:18.262Z,6.93
2019-01-19T15:23:17.445Z,6.27
2019-01-19T15:26:26.047Z,6.17
2019-01-19T15:29:24.610Z,6.13
2019-01-19T15:32:20.505Z,6.23
2019-01-19T15:35:21.043Z,6.47
2019-01-19T15:38:40.599Z,6.77
2019-01-19T15:41:50.959Z,6.50
2019-01-19T15:44:48.139Z,6.50
2019-01-19T15:48:03.385Z,6.60
2019-01-19T15:51:33.964Z,6.90
2019-01-19T15:54:42.200Z,7.63
2019-01-19T15:57:47.395Z,7.97
2019-01-19T16:00:52.546Z,8.13
2019-01-19T16:04:00.770Z,8.20
2019-01-19T16:07:04.348Z,8.83
2019-01-19T16:09:57.631Z,8.50
2019-01-19T16:12:56.291Z,9.37
2019-01-19T16:16:20.062Z,8.80
2019-01-19T16:19:20.610Z,8.43
2019-01-19T16:22:08.296Z,8.30
2019-01-19T16:25:17.164Z,9.80
2019-01-19T16:28:37.732Z,9.73
2019-01-19T16:31:33.641Z,9.20
2019-01-19T16:34:47.954Z,9.13
2019-01-19T16:37:38.700Z,8.83
2019-01-19T16:40:40.021Z,9.03
2019-01-19T16:43:49.983Z,9.23
2019-01-19T16:47:00.948Z,10.77
2019-01-19T16:50:17.585Z,9.57
2019-01-19T16:53:14.314Z,9.37
2019-01-19T16:56:14.312Z,9.50
2019-01-19T16:59:19.612Z,9.67
2019-01-19T17:02:37.403Z,8.53
2019-01-19T17:05:22.390Z,8.37
2019-01-19T17:08:28.401Z,8.33
2019-01-19T17:11:45.051Z,8.87
2019-01-19T17:15:09.453Z,8.50
2019-01-19T17:18:14.998Z,8.80
2019-01-19T17:21:23.732Z,8.53
2019-01-19T17:24:33.731Z,8.40
2019-01-19T17:27:13.429Z,8.97
2019-01-19T17:30:23.103Z,9.90
2019-01-19T17:33:25.287Z,8.80
2019-01-19T17:36:22.759Z,9.03
2019-01-19T17:39:32.335Z,9.13
2019-01-19T17:42:56.547Z,8.30
2019-01-19T17:46:02.299Z,8.00
2019-01-19T17:49:16.894Z,8.17
2019-01-19T17:52:30.379Z,10.53
2019-01-19T17:55:41.953Z,9.30
2019-01-19T17:58:42.476Z,8.53
2019-01-19T18:01:57.537Z,8.73
2019-01-19T18:04:34.543Z,8.73
2019-01-19T18:07:42.736Z,8.53
2019-01-19T18:10:56.253Z,9.27
2019-01-19T18:14:15.004Z,9.67
2019-01-19T18:17:42.677Z,9.43
2019-01-19T18:20:56.614Z,9.40
2019-01-19T18:24:11.914Z,9.43
2019-01-19T18:27:28.522Z,10.33
2019-01-19T18:30:40.518Z,10.87
2019-01-19T18:33:18.715Z,10.07
2019-01-19T18:36:32.757Z,9.17
2019-01-19T18:39:54.894Z,9.63
2019-01-19T18:42:53.941Z,8.83
2019-01-19T18:45:52.905Z,9.43
2019-01-19T18:49:05.864Z,9.27
2019-01-19T18:52:20.092Z,9.70
2019-01-19T18:55:26.468Z,9.70
2019-01-19T18:58:44.658Z,10.80
2019-01-19T19:01:43.617Z,13.53
2019-01-19T19:04:59.710Z,14.67
2019-01-19T19:08:27.298Z,12.57
2019-01-19T19:11:27.787Z,11.47
2019-01-19T19:14:18.500Z,13.63
2019-01-19T19:17:40.128Z,13.00
2019-01-19T19:20:52.776Z,12.23
2019-01-19T19:24:08.521Z,11.07
2019-01-19T19:27:09.061Z,11.50
2019-01-19T19:30:21.471Z,11.70
2019-01-19T19:33:22.930Z,11.30
2019-01-19T19:36:34.372Z,11.00
2019-01-19T19:39:40.284Z,12.27
2019-01-19T19:42:40.784Z,12.40
2019-01-19T19:45:54.279Z,12.10
2019-01-19T19:49:06.911Z,12.63
2019-01-19T19:51:55.848Z,12.23
2019-01-19T19:54:28.750Z,10.87
2019-01-19T19:57:01.927Z,12.30
2019-01-19T19:59:33.543Z,14.93
2019-01-19T20:02:05.282Z,12.97
2019-01-19T20:04:38.330Z,12.37
2019-01-19T20:07:10.000Z,12.73
2019-01-19T20:09:41.517Z,11.67
2019-01-19T20:12:13.102Z,11.53
2019-01-19T20:14:44.606Z,11.43
2019-01-19T20:17:16.331Z,11.07
2019-01-19T20:19:49.184Z,11.43
2019-01-19T20:22:20.967Z,11.63
2019-01-19T20:24:52.309Z,12.00
2019-01-19T20:27:24.916Z,12.00
2019-01-19T20:29:56.819Z,10.93
2019-01-19T20:32:29.486Z,9.50
2019-01-19T20:35:01.579Z,10.13
2019-01-19T20:37:34.236Z,10.20
2019-01-19T20:40:07.325Z,9.87
2019-01-19T20:42:39.912Z,9.70
2019-01-19T20:45:12.379Z,10.07
2019-01-19T20:47:44.236Z,9.47
2019-01-19T20:50:16.384Z,9.60
2019-01-19T20:52:49.049Z,9.43
2019-01-19T20:55:20.645Z,9.73
2019-01-19T20:57:52.609Z,9.23
2019-01-19T21:00:24.759Z,9.00
2019-01-19T21:02:56.111Z,9.77
2019-01-19T21:05:29.781Z,9.43
2019-01-19T21:08:02.319Z,10.03
2019-01-19T21:10:35.327Z,9.63
2019-01-19T21:13:06.815Z,9.60
2019-01-19T21:15:38.796Z,9.43
2019-01-19T21:18:10.398Z,9.47
2019-01-19T21:20:42.352Z,9.17
2019-01-19T21:23:13.917Z,9.63
2019-01-19T21:25:45.728Z,8.77
2019-01-19T21:28:17.251Z,9.17
2019-01-19T21:30:50.024Z,9.90
2019-01-19T21:33:21.835Z,11.07
2019-01-19T21:35:53.406Z,11.07
2019-01-19T21:38:24.950Z,10.93
2019-01-19T21:40:56.327Z,11.37
2019-01-19T21:43:28.294Z,10.53
2019-01-19T21:45:59.823Z,9.90
2019-01-19T21:48:31.514Z,10.50
2019-01-19T21:51:02.890Z,10.63
2019-01-19T21:53:34.850Z,11.27
2019-01-19T21:56:06.572Z,10.90
2019-01-19T21:58:39.982Z,10.17
2019-01-19T22:01:12.216Z,10.10
2019-01-19T22:03:43.941Z,9.90
2019-01-19T22:06:20.441Z,10.07
2019-01-19T22:08:52.705Z,9.67
2019-01-19T22:11:24.515Z,9.33
2019-01-19T22:13:56.449Z,10.63
2019-01-19T22:16:29.423Z,9.50
2019-01-19T22:19:00.933Z,10.07
2019-01-19T22:21:32.428Z,9.17
2019-01-19T22:24:03.846Z,9.40
2019-01-19T22:26:37.230Z,9.77
2019-01-19T22:29:10.378Z,9.27
2019-01-19T22:31:42.096Z,9.93
2019-01-19T22:34:14.010Z,9.83
2019-01-19T22:36:45.876Z,9.80
2019-01-19T22:39:17.540Z,10.63
2019-01-19T22:41:49.020Z,8.97
2019-01-19T22:44:20.970Z,10.53
2019-01-19T22:46:52.598Z,11.13
2019-01-19T22:49:24.031Z,11.40
2019-01-19T22:51:55.439Z,11.03
2019-01-19T22:54:27.290Z,11.53
2019-01-19T22:57:00.462Z,11.67
2019-01-19T22:59:32.145Z,11.87
2019-01-19T23:02:10.659Z,12.17
2019-01-19T23:04:42.174Z,11.77
2019-01-19T23:07:13.597Z,12.67
2019-01-19T23:09:45.127Z,12.57
2019-01-19T23:12:16.462Z,11.10
2019-01-19T23:14:50.053Z,12.10
2019-01-19T23:17:21.761Z,12.93
2019-01-19T23:19:54.734Z,12.97
2019-01-19T23:22:26.680Z,12.70
2019-01-19T23:24:58.130Z,12.70
2019-01-19T23:27:29.803Z,12.20
2019-01-19T23:30:01.323Z,13.43
2019-01-19T23:32:34.218Z,12.17
2019-01-19T23:35:06.977Z,12.57
2019-01-19T23:37:38.777Z,14.80
2019-01-19T23:40:12.315Z,23.27
2019-01-19T23:42:47.391Z,29.23
2019-01-19T23:45:18.044Z,25.03
2019-01-19T23:47:49.990Z,42.33
2019-01-19T23:50:21.459Z,28.43
2019-01-19T23:52:53.140Z,23.00
2019-01-19T23:55:25.730Z,12.77
2019-01-19T23:57:59.407Z,17.43
